sensor_id;sensor_type;location;lat;lon;timestamp;pressure;altitude;pressure_sealevel;temperature;humidity
68891;BME280;55932;48.702;8.884;2022-08-21T00:02:23;96280;;;12.9;59.5
68891;BME280;55932;48.702;8.884;2022-08-21T00:04:53;96290;;;12.9;59.5
68891;BME280;55932;48.702;8.884;2022-08-21T00:07:31;96280;;;12.9;59.5
68891;BME280;55932;48.702;8.884;2022-08-21T00:10:02;96280;;;12.8;59.5
68891;BME280;55932;48.702;8.884;2022-08-21T00:12:33;96270;;;12.7;59.5
68891;BME280;55932;48.702;8.884;2022-08-21T00:14:57;96270;;;12.7;59.5
68891;BME280;55932;48.702;8.884;2022-08-21T00:17:28;96270;;;12.6;59.5
68891;BME280;55932;48.702;8.884;2022-08-21T00:19:58;96270;;;12.6;59.5
68891;BME280;55932;48.702;8.884;2022-08-21T00:22:30;96270;;;12.7;59.5
68891;BME280;55932;48.702;8.884;2022-08-21T00:30:03;96260;;;13;59
68891;BME280;55932;48.702;8.884;2022-08-21T00:32:32;96260;;;13;59
68891;BME280;55932;48.702;8.884;2022-08-21T00:35:14;96270;;;12.9;59
68891;BME280;55932;48.702;8.884;2022-08-21T00:37:41;96260;;;12.8;59
68891;BME280;55932;48.702;8.884;2022-08-21T00:42:42;96260;;;12.7;59.5
68891;BME280;55932;48.702;8.884;2022-08-21T00:45:13;96260;;;12.6;59.5
68891;BME280;55932;48.702;8.884;2022-08-21T00:50:09;96260;;;12.6;59.5
68891;BME280;55932;48.702;8.884;2022-08-21T00:52:39;96260;;;12.6;59.5
68891;BME280;55932;48.702;8.884;2022-08-21T01:00:15;96260;;;12.5;59.5
68891;BME280;55932;48.702;8.884;2022-08-21T01:02:43;96250;;;12.4;59.5
68891;BME280;55932;48.702;8.884;2022-08-21T01:07:43;96260;;;12.3;59.5
68891;BME280;55932;48.702;8.884;2022-08-21T01:10:14;96250;;;12.3;59.5
68891;BME280;55932;48.702;8.884;2022-08-21T01:12:45;96250;;;12.2;60
68891;BME280;55932;48.702;8.884;2022-08-21T01:15:30;96250;;;12.3;59.5
68891;BME280;55932;48.702;8.884;2022-08-21T01:17:59;96250;;;12.3;59.5
68891;BME280;55932;48.702;8.884;2022-08-21T01:25:24;96250;;;12.4;59.5
68891;BME280;55932;48.702;8.884;2022-08-21T01:27:55;96250;;;12.4;59.5
68891;BME280;55932;48.702;8.884;2022-08-21T01:33:03;96250;;;12.3;59.5
68891;BME280;55932;48.702;8.884;2022-08-21T01:38:03;96240;;;12.1;59.5
68891;BME280;55932;48.702;8.884;2022-08-21T01:40:33;96240;;;12.1;60
68891;BME280;55932;48.702;8.884;2022-08-21T01:45:34;96240;;;12.2;59.5
68891;BME280;55932;48.702;8.884;2022-08-21T01:48:05;96230;;;12.2;59.5
68891;BME280;55932;48.702;8.884;2022-08-21T01:53:00;96240;;;12.3;59.5
68891;BME280;55932;48.702;8.884;2022-08-21T01:55:37;96240;;;12.2;59.5
68891;BME280;55932;48.702;8.884;2022-08-21T02:00:38;96230;;;12.1;59.5
68891;BME280;55932;48.702;8.884;2022-08-21T02:03:08;96230;;;12.1;59.5
68891;BME280;55932;48.702;8.884;2022-08-21T02:08:02;96220;;;12.1;59.5
68891;BME280;55932;48.702;8.884;2022-08-21T02:10:33;96220;;;12.1;59.5
68891;BME280;55932;48.702;8.884;2022-08-21T02:13:10;96220;;;12;59.5
68891;BME280;55932;48.702;8.884;2022-08-21T02:15:42;96220;;;12.1;59.5
68891;BME280;55932;48.702;8.884;2022-08-21T02:20:31;96220;;;12.1;59.5
68891;BME280;55932;48.702;8.884;2022-08-21T02:23:00;96220;;;12.1;59.5
68891;BME280;55932;48.702;8.884;2022-08-21T02:25:31;96220;;;12.1;59.5
68891;BME280;55932;48.702;8.884;2022-08-21T02:28:04;96210;;;12.1;59.5
68891;BME280;55932;48.702;8.884;2022-08-21T02:30:35;96210;;;12.1;59.5
68891;BME280;55932;48.702;8.884;2022-08-21T02:33:04;96210;;;12.1;59.5
68891;BME280;55932;48.702;8.884;2022-08-21T02:35:34;96210;;;12.2;59.5
68891;BME280;55932;48.702;8.884;2022-08-21T02:40:36;96210;;;12.2;59.5
68891;BME280;55932;48.702;8.884;2022-08-21T02:43:13;96210;;;12.2;59.5
68891;BME280;55932;48.702;8.884;2022-08-21T02:45:44;96200;;;12.2;59.5
68891;BME280;55932;48.702;8.884;2022-08-21T02:48:23;96200;;;12.2;59.5
68891;BME280;55932;48.702;8.884;2022-08-21T02:56:09;96210;;;12.1;59.5
68891;BME280;55932;48.702;8.884;2022-08-21T02:58:27;96200;;;12.1;59.5
68891;BME280;55932;48.702;8.884;2022-08-21T03:00:54;96200;;;12.2;59.5
68891;BME280;55932;48.702;8.884;2022-08-21T03:05:49;96200;;;12.2;59.5
68891;BME280;55932;48.702;8.884;2022-08-21T03:08:20;96200;;;12.2;59.5
68891;BME280;55932;48.702;8.884;2022-08-21T03:10:52;96200;;;12.1;59.5
68891;BME280;55932;48.702;8.884;2022-08-21T03:18:17;96200;;;12.1;59.5
68891;BME280;55932;48.702;8.884;2022-08-21T03:20:48;96200;;;12;59.5
68891;BME280;55932;48.702;8.884;2022-08-21T03:23:19;96200;;;12;59.5
68891;BME280;55932;48.702;8.884;2022-08-21T03:25:49;96200;;;11.9;59.5
68891;BME280;55932;48.702;8.884;2022-08-21T03:28:27;96200;;;11.9;59.5
68891;BME280;55932;48.702;8.884;2022-08-21T03:30:58;96200;;;11.9;60
68891;BME280;55932;48.702;8.884;2022-08-21T03:33:29;96200;;;11.8;60
68891;BME280;55932;48.702;8.884;2022-08-21T03:36:01;96200;;;11.8;60
68891;BME280;55932;48.702;8.884;2022-08-21T03:43:25;96200;;;11.5;60
68891;BME280;55932;48.702;8.884;2022-08-21T03:45:56;96200;;;11.6;60
68891;BME280;55932;48.702;8.884;2022-08-21T03:48:26;96200;;;11.6;60
68891;BME280;55932;48.702;8.884;2022-08-21T03:50:57;96200;;;11.6;60
68891;BME280;55932;48.702;8.884;2022-08-21T03:53:28;96200;;;11.5;60
68891;BME280;55932;48.702;8.884;2022-08-21T03:55:59;96200;;;11.3;60
68891;BME280;55932;48.702;8.884;2022-08-21T03:58:30;96210;;;11.2;60.5
68891;BME280;55932;48.702;8.884;2022-08-21T04:03:32;96210;;;11.1;60.5
68891;BME280;55932;48.702;8.884;2022-08-21T04:06:02;96220;;;11.1;60.5
68891;BME280;55932;48.702;8.884;2022-08-21T04:08:33;96220;;;11.1;60
68891;BME280;55932;48.702;8.884;2022-08-21T04:11:04;96220;;;11.1;60
68891;BME280;55932;48.702;8.884;2022-08-21T04:21:07;96220;;;10.9;60.5
68891;BME280;55932;48.702;8.884;2022-08-21T04:23:37;96230;;;10.9;60.5
68891;BME280;55932;48.702;8.884;2022-08-21T04:26:08;96230;;;10.9;60
68891;BME280;55932;48.702;8.884;2022-08-21T04:28:38;96240;;;10.9;60
68891;BME280;55932;48.702;8.884;2022-08-21T04:31:09;96240;;;11;60
68891;BME280;55932;48.702;8.884;2022-08-21T04:33:40;96250;;;11;60
68891;BME280;55932;48.702;8.884;2022-08-21T04:36:11;96240;;;10.9;60
68891;BME280;55932;48.702;8.884;2022-08-21T04:38:42;96250;;;10.8;60
68891;BME280;55932;48.702;8.884;2022-08-21T04:46:26;96260;;;10.6;60.5
68891;BME280;55932;48.702;8.884;2022-08-21T04:53:54;96260;;;10.8;60
68891;BME280;55932;48.702;8.884;2022-08-21T04:58:54;96260;;;10.8;60
68891;BME280;55932;48.702;8.884;2022-08-21T05:01:25;96260;;;10.9;60
68891;BME280;55932;48.702;8.884;2022-08-21T05:06:19;96260;;;11.1;59.5
68891;BME280;55932;48.702;8.884;2022-08-21T05:13:52;96260;;;11.4;59
68891;BME280;55932;48.702;8.884;2022-08-21T05:16:22;96260;;;11.6;59
68891;BME280;55932;48.702;8.884;2022-08-21T05:18:53;96270;;;11.7;59
68891;BME280;55932;48.702;8.884;2022-08-21T05:21:24;96270;;;11.9;59
68891;BME280;55932;48.702;8.884;2022-08-21T05:23:55;96270;;;12;58.5
68891;BME280;55932;48.702;8.884;2022-08-21T05:26:25;96270;;;12.2;58.5
68891;BME280;55932;48.702;8.884;2022-08-21T05:28:56;96270;;;12.4;58.5
68891;BME280;55932;48.702;8.884;2022-08-21T05:31:34;96270;;;12.6;58
68891;BME280;55932;48.702;8.884;2022-08-21T05:34:05;96270;;;12.7;58
68891;BME280;55932;48.702;8.884;2022-08-21T05:36:35;96270;;;12.8;58
68891;BME280;55932;48.702;8.884;2022-08-21T05:44:02;96280;;;13.2;58
68891;BME280;55932;48.702;8.884;2022-08-21T05:46:32;96280;;;13.3;58
68891;BME280;55932;48.702;8.884;2022-08-21T05:49:03;96280;;;13.4;57.5
68891;BME280;55932;48.702;8.884;2022-08-21T05:51:34;96280;;;13.5;58
68891;BME280;55932;48.702;8.884;2022-08-21T05:54:05;96280;;;13.5;58
68891;BME280;55932;48.702;8.884;2022-08-21T05:56:35;96280;;;13.7;58
68891;BME280;55932;48.702;8.884;2022-08-21T05:59:06;96270;;;13.8;57.5
68891;BME280;55932;48.702;8.884;2022-08-21T06:01:37;96280;;;13.7;58
68891;BME280;55932;48.702;8.884;2022-08-21T06:04:08;96280;;;13.8;58
68891;BME280;55932;48.702;8.884;2022-08-21T06:24:20;96280;;;15.2;57
68891;BME280;55932;48.702;8.884;2022-08-21T06:26:51;96280;;;15.3;57
68891;BME280;55932;48.702;8.884;2022-08-21T06:29:28;96280;;;15.3;57
68891;BME280;55932;48.702;8.884;2022-08-21T06:31:53;96270;;;15.4;57
68891;BME280;55932;48.702;8.884;2022-08-21T06:34:24;96270;;;15.6;56.5
68891;BME280;55932;48.702;8.884;2022-08-21T06:36:55;96270;;;15.7;56.5
68891;BME280;55932;48.702;8.884;2022-08-21T06:39:18;96270;;;16;56.5
68891;BME280;55932;48.702;8.884;2022-08-21T06:46:51;96270;;;16.6;56
68891;BME280;55932;48.702;8.884;2022-08-21T06:49:22;96260;;;16.7;56
68891;BME280;55932;48.702;8.884;2022-08-21T06:54:23;96260;;;16.9;55.5
68891;BME280;55932;48.702;8.884;2022-08-21T06:56:54;96260;;;17.1;55.5
68891;BME280;55932;48.702;8.884;2022-08-21T06:59:25;96260;;;17.3;55.5
68891;BME280;55932;48.702;8.884;2022-08-21T07:01:56;96260;;;17.5;55.5
68891;BME280;55932;48.702;8.884;2022-08-21T07:09:28;96250;;;22.6;46.5
68891;BME280;55932;48.702;8.884;2022-08-21T07:11:59;96250;;;25.8;42.5
68891;BME280;55932;48.702;8.884;2022-08-21T07:19:45;96250;;;29.6;39
68891;BME280;55932;48.702;8.884;2022-08-21T07:22:13;96240;;;29.1;40.5
68891;BME280;55932;48.702;8.884;2022-08-21T07:24:44;96250;;;29;41.5
68891;BME280;55932;48.702;8.884;2022-08-21T07:29:38;96240;;;30.8;40
68891;BME280;55932;48.702;8.884;2022-08-21T07:32:09;96250;;;30;42
68891;BME280;55932;48.702;8.884;2022-08-21T07:34:46;96240;;;31;40.5
68891;BME280;55932;48.702;8.884;2022-08-21T07:37:17;96240;;;32.1;39.5
68891;BME280;55932;48.702;8.884;2022-08-21T07:42:32;96240;;;31.7;41.5
68891;BME280;55932;48.702;8.884;2022-08-21T07:44:49;96230;;;30.6;43.5
68891;BME280;55932;48.702;8.884;2022-08-21T07:47:19;96240;;;31.4;42
68891;BME280;55932;48.702;8.884;2022-08-21T07:57:23;96230;;;31.7;43
68891;BME280;55932;48.702;8.884;2022-08-21T07:59:54;96230;;;31.4;43.5
68891;BME280;55932;48.702;8.884;2022-08-21T08:02:26;96230;;;32.1;42.5
68891;BME280;55932;48.702;8.884;2022-08-21T08:04:54;96230;;;32.2;43
68891;BME280;55932;48.702;8.884;2022-08-21T08:12:13;96220;;;32.9;42
68891;BME280;55932;48.702;8.884;2022-08-21T08:14:44;96230;;;32.7;42.5
68891;BME280;55932;48.702;8.884;2022-08-21T08:17:14;96230;;;32.2;44.5
68891;BME280;55932;48.702;8.884;2022-08-21T08:19:44;96220;;;32.8;44
68891;BME280;55932;48.702;8.884;2022-08-21T08:22:16;96230;;;33.6;42
68891;BME280;55932;48.702;8.884;2022-08-21T08:24:46;96220;;;32.9;43
68891;BME280;55932;48.702;8.884;2022-08-21T08:27:16;96220;;;33.2;43
68891;BME280;55932;48.702;8.884;2022-08-21T08:29:47;96210;;;33.6;43
68891;BME280;55932;48.702;8.884;2022-08-21T08:37:19;96210;;;33.8;44
68891;BME280;55932;48.702;8.884;2022-08-21T08:40:11;96210;;;33.4;45
68891;BME280;55932;48.702;8.884;2022-08-21T08:47:31;96190;;;34.3;43
68891;BME280;55932;48.702;8.884;2022-08-21T08:52:33;96190;;;34.7;42.5
68891;BME280;55932;48.702;8.884;2022-08-21T08:55:04;96190;;;33.7;45
68891;BME280;55932;48.702;8.884;2022-08-21T08:57:32;96190;;;32.9;46.5
68891;BME280;55932;48.702;8.884;2022-08-21T09:04:52;96180;;;34.7;43
68891;BME280;55932;48.702;8.884;2022-08-21T09:10:03;96190;;;33.4;46
68891;BME280;55932;48.702;8.884;2022-08-21T09:12:44;96190;;;33.4;45.5
68891;BME280;55932;48.702;8.884;2022-08-21T09:14:58;96180;;;34.4;43.5
68891;BME280;55932;48.702;8.884;2022-08-21T09:17:33;96180;;;34.4;43.5
68891;BME280;55932;48.702;8.884;2022-08-21T09:20:03;96170;;;34.1;44
68891;BME280;55932;48.702;8.884;2022-08-21T09:22:31;96170;;;31.5;47.5
68891;BME280;55932;48.702;8.884;2022-08-21T09:29:57;96170;;;25.4;56.5
68891;BME280;55932;48.702;8.884;2022-08-21T09:32:28;96170;;;24.7;57.5
68891;BME280;55932;48.702;8.884;2022-08-21T09:35:14;96170;;;25;56.5
68891;BME280;55932;48.702;8.884;2022-08-21T09:37:29;96160;;;26.1;55
68891;BME280;55932;48.702;8.884;2022-08-21T09:39:59;96160;;;29.3;50.5
68891;BME280;55932;48.702;8.884;2022-08-21T09:42:31;96170;;;28.7;51
68891;BME280;55932;48.702;8.884;2022-08-21T09:47:42;96160;;;29;50.5
68891;BME280;55932;48.702;8.884;2022-08-21T09:50:19;96160;;;31;48
68891;BME280;55932;48.702;8.884;2022-08-21T09:52:43;96160;;;30.4;48.5
68891;BME280;55932;48.702;8.884;2022-08-21T09:55:16;96160;;;31.7;47
68891;BME280;55932;48.702;8.884;2022-08-21T10:02:33;96160;;;33.5;45
68891;BME280;55932;48.702;8.884;2022-08-21T10:05:08;96150;;;34;44.5
68891;BME280;55932;48.702;8.884;2022-08-21T10:07:36;96150;;;33.2;45
68891;BME280;55932;48.702;8.884;2022-08-21T10:10:06;96150;;;33.4;45.5
68891;BME280;55932;48.702;8.884;2022-08-21T10:12:39;96140;;;34.3;44
68891;BME280;55932;48.702;8.884;2022-08-21T10:15:09;96140;;;34.1;44.5
68891;BME280;55932;48.702;8.884;2022-08-21T10:20:22;96150;;;29.4;51
68891;BME280;55932;48.702;8.884;2022-08-21T10:23:00;96140;;;27.7;53.5
68891;BME280;55932;48.702;8.884;2022-08-21T10:25:18;96140;;;28.7;53.5
68891;BME280;55932;48.702;8.884;2022-08-21T10:28:10;96140;;;31.2;49.5
68891;BME280;55932;48.702;8.884;2022-08-21T10:35:12;96130;;;30.1;49.5
68891;BME280;55932;48.702;8.884;2022-08-21T10:37:43;96130;;;31.7;48
68891;BME280;55932;48.702;8.884;2022-08-21T10:40:12;96130;;;32.5;46.5
68891;BME280;55932;48.702;8.884;2022-08-21T10:42:46;96130;;;33.2;46.5
68891;BME280;55932;48.702;8.884;2022-08-21T10:45:14;96120;;;34.1;45.5
68891;BME280;55932;48.702;8.884;2022-08-21T10:47:42;96120;;;31.7;48
68891;BME280;55932;48.702;8.884;2022-08-21T10:55:30;96110;;;27.9;54.5
68891;BME280;55932;48.702;8.884;2022-08-21T10:58:04;96110;;;30.3;51
68891;BME280;55932;48.702;8.884;2022-08-21T11:05:14;96110;;;32.8;46
68891;BME280;55932;48.702;8.884;2022-08-21T11:07:45;96110;;;33.2;46
68891;BME280;55932;48.702;8.884;2022-08-21T11:10:21;96110;;;32.3;47
68891;BME280;55932;48.702;8.884;2022-08-21T11:12:46;96110;;;33;46.5
68891;BME280;55932;48.702;8.884;2022-08-21T11:20:20;96100;;;30.3;50
68891;BME280;55932;48.702;8.884;2022-08-21T11:22:49;96100;;;31.8;48
68891;BME280;55932;48.702;8.884;2022-08-21T11:25:17;96110;;;33.1;46.5
68891;BME280;55932;48.702;8.884;2022-08-21T11:30:31;96100;;;33.4;45.5
68891;BME280;55932;48.702;8.884;2022-08-21T11:40:41;96100;;;31.4;48.5
68891;BME280;55932;48.702;8.884;2022-08-21T11:43:09;96100;;;30.1;49
68891;BME280;55932;48.702;8.884;2022-08-21T11:48:07;96090;;;31.6;48.5
68891;BME280;55932;48.702;8.884;2022-08-21T11:50:30;96090;;;32.8;46.5
68891;BME280;55932;48.702;8.884;2022-08-21T11:53:12;96090;;;34.1;45
68891;BME280;55932;48.702;8.884;2022-08-21T11:55:41;96080;;;33.6;46
68891;BME280;55932;48.702;8.884;2022-08-21T11:58:04;96090;;;33.2;46
68891;BME280;55932;48.702;8.884;2022-08-21T12:00:35;96080;;;33.9;46
68891;BME280;55932;48.702;8.884;2022-08-21T12:03:10;96080;;;34.7;45.5
68891;BME280;55932;48.702;8.884;2022-08-21T12:05:32;96070;;;34.9;45
68891;BME280;55932;48.702;8.884;2022-08-21T12:08:04;96080;;;32.6;47.5
68891;BME280;55932;48.702;8.884;2022-08-21T12:10:30;96070;;;31.3;49.5
68891;BME280;55932;48.702;8.884;2022-08-21T12:17:54;96060;;;31.8;48.5
68891;BME280;55932;48.702;8.884;2022-08-21T12:21:27;96060;;;29.6;51.5
68891;BME280;55932;48.702;8.884;2022-08-21T12:22:55;96060;;;29.1;52.5
68891;BME280;55932;48.702;8.884;2022-08-21T12:30:37;96050;;;33.2;47
68891;BME280;55932;48.702;8.884;2022-08-21T12:33:17;96050;;;34.5;45.5
68891;BME280;55932;48.702;8.884;2022-08-21T12:35:40;96050;;;35.2;44.5
68891;BME280;55932;48.702;8.884;2022-08-21T12:45:28;96030;;;35.5;45.5
68891;BME280;55932;48.702;8.884;2022-08-21T12:53:00;96040;;;35.4;44.5
68891;BME280;55932;48.702;8.884;2022-08-21T12:55:29;96040;;;35.9;44
68891;BME280;55932;48.702;8.884;2022-08-21T12:57:58;96040;;;36.3;44
68891;BME280;55932;48.702;8.884;2022-08-21T13:00:29;96040;;;37.5;42
68891;BME280;55932;48.702;8.884;2022-08-21T13:02:59;96040;;;37.4;42
68891;BME280;55932;48.702;8.884;2022-08-21T13:10:31;96040;;;36.8;43.5
68891;BME280;55932;48.702;8.884;2022-08-21T13:13:03;96030;;;35.7;45
68891;BME280;55932;48.702;8.884;2022-08-21T13:18:35;96040;;;34.4;46.5
68891;BME280;55932;48.702;8.884;2022-08-21T13:21:06;96040;;;32.3;48.5
68891;BME280;55932;48.702;8.884;2022-08-21T13:25:45;96040;;;29.3;52.5
68891;BME280;55932;48.702;8.884;2022-08-21T13:28:15;96040;;;28.7;52.5
68891;BME280;55932;48.702;8.884;2022-08-21T13:30:46;96040;;;28.1;53
68891;BME280;55932;48.702;8.884;2022-08-21T13:33:15;96040;;;27.7;53.5
68891;BME280;55932;48.702;8.884;2022-08-21T13:35:47;96040;;;27.3;53
68891;BME280;55932;48.702;8.884;2022-08-21T13:38:26;96040;;;27.9;52.5
68891;BME280;55932;48.702;8.884;2022-08-21T13:43:18;96030;;;29.8;50.5
68891;BME280;55932;48.702;8.884;2022-08-21T13:45:48;96030;;;30;50
68891;BME280;55932;48.702;8.884;2022-08-21T13:48:16;96030;;;31.7;47.5
68891;BME280;55932;48.702;8.884;2022-08-21T13:50:46;96030;;;32.8;45.5
68891;BME280;55932;48.702;8.884;2022-08-21T13:53:22;96030;;;31.5;46.5
68891;BME280;55932;48.702;8.884;2022-08-21T13:55:46;96020;;;31.6;47
68891;BME280;55932;48.702;8.884;2022-08-21T13:58:25;96030;;;32;46.5
68891;BME280;55932;48.702;8.884;2022-08-21T14:00:48;96020;;;33.8;44.5
68891;BME280;55932;48.702;8.884;2022-08-21T14:03:32;96020;;;35.1;43
68891;BME280;55932;48.702;8.884;2022-08-21T14:05:56;96020;;;35.6;42
68891;BME280;55932;48.702;8.884;2022-08-21T14:13:06;96020;;;35.2;43
68891;BME280;55932;48.702;8.884;2022-08-21T14:15:37;96020;;;35.7;42.5
68891;BME280;55932;48.702;8.884;2022-08-21T14:18:14;96020;;;36.1;41.5
68891;BME280;55932;48.702;8.884;2022-08-21T14:20:38;96010;;;34.9;44
68891;BME280;55932;48.702;8.884;2022-08-21T14:28:14;96000;;;34.1;44
68891;BME280;55932;48.702;8.884;2022-08-21T14:30:41;96000;;;33.9;45
68891;BME280;55932;48.702;8.884;2022-08-21T14:33:12;96000;;;33.9;45
68891;BME280;55932;48.702;8.884;2022-08-21T14:35:42;96000;;;33.9;45
68891;BME280;55932;48.702;8.884;2022-08-21T14:43:25;95990;;;33.6;45
68891;BME280;55932;48.702;8.884;2022-08-21T14:45:55;95990;;;33.6;44.5
68891;BME280;55932;48.702;8.884;2022-08-21T14:48:24;96000;;;32.6;45.5
68891;BME280;55932;48.702;8.884;2022-08-21T14:53:13;96000;;;28.3;49.5
68891;BME280;55932;48.702;8.884;2022-08-21T15:00:45;95990;;;29.5;48
68891;BME280;55932;48.702;8.884;2022-08-21T15:03:15;96000;;;29;48.5
68891;BME280;55932;48.702;8.884;2022-08-21T15:05:46;96000;;;28.2;49
68891;BME280;55932;48.702;8.884;2022-08-21T15:08:17;96000;;;27.4;50
68891;BME280;55932;48.702;8.884;2022-08-21T15:10:58;96000;;;26.9;50.5
68891;BME280;55932;48.702;8.884;2022-08-21T15:13:28;96000;;;27.6;50
68891;BME280;55932;48.702;8.884;2022-08-21T15:15:58;95990;;;29.2;48.5
68891;BME280;55932;48.702;8.884;2022-08-21T15:18:18;95990;;;30.4;47
68891;BME280;55932;48.702;8.884;2022-08-21T15:20:48;95980;;;30.9;46
68891;BME280;55932;48.702;8.884;2022-08-21T15:25:50;95980;;;30.9;45
68891;BME280;55932;48.702;8.884;2022-08-21T15:30:50;95980;;;30.1;46.5
68891;BME280;55932;48.702;8.884;2022-08-21T15:33:21;95970;;;30.2;47
68891;BME280;55932;48.702;8.884;2022-08-21T15:35:51;95970;;;30.4;46.5
68891;BME280;55932;48.702;8.884;2022-08-21T15:38:22;95980;;;30.6;46
68891;BME280;55932;48.702;8.884;2022-08-21T15:40:52;95980;;;31.1;45
68891;BME280;55932;48.702;8.884;2022-08-21T15:43:50;95980;;;31.1;45
68891;BME280;55932;48.702;8.884;2022-08-21T15:46:04;95970;;;30.5;45.5
68891;BME280;55932;48.702;8.884;2022-08-21T15:48:34;95970;;;29;47.5
68891;BME280;55932;48.702;8.884;2022-08-21T15:51:04;95970;;;27.7;49
68891;BME280;55932;48.702;8.884;2022-08-21T15:53:23;95960;;;27.4;49.5
68891;BME280;55932;48.702;8.884;2022-08-21T15:55:54;95960;;;27.9;49
68891;BME280;55932;48.702;8.884;2022-08-21T15:58:24;95960;;;28.1;48.5
68891;BME280;55932;48.702;8.884;2022-08-21T16:00:55;95960;;;28.2;48.5
68891;BME280;55932;48.702;8.884;2022-08-21T16:03:25;95960;;;28.1;49
68891;BME280;55932;48.702;8.884;2022-08-21T16:05:56;95960;;;28.2;48.5
68891;BME280;55932;48.702;8.884;2022-08-21T16:08:26;95950;;;28.5;48
68891;BME280;55932;48.702;8.884;2022-08-21T16:10:57;95950;;;28.4;48
68891;BME280;55932;48.702;8.884;2022-08-21T16:13:32;95960;;;28.2;48.5
68891;BME280;55932;48.702;8.884;2022-08-21T16:21:19;95940;;;28.8;48.5
68891;BME280;55932;48.702;8.884;2022-08-21T16:26:11;95940;;;29.8;47
68891;BME280;55932;48.702;8.884;2022-08-21T16:28:41;95940;;;29.8;46.5
68891;BME280;55932;48.702;8.884;2022-08-21T16:33:43;95940;;;29.5;47
68891;BME280;55932;48.702;8.884;2022-08-21T16:38:41;95940;;;29.7;47
68891;BME280;55932;48.702;8.884;2022-08-21T16:41:12;95940;;;29.9;47
68891;BME280;55932;48.702;8.884;2022-08-21T16:43:42;95940;;;30;46.5
68891;BME280;55932;48.702;8.884;2022-08-21T16:54:04;95940;;;27.4;49
68891;BME280;55932;48.702;8.884;2022-08-21T16:56:25;95940;;;26.5;50.5
68891;BME280;55932;48.702;8.884;2022-08-21T17:01:16;95940;;;25.6;51.5
68891;BME280;55932;48.702;8.884;2022-08-21T17:04:05;95940;;;25.4;51.5
68891;BME280;55932;48.702;8.884;2022-08-21T17:06:16;95940;;;25.4;51.5
68891;BME280;55932;48.702;8.884;2022-08-21T17:08:48;95940;;;25.6;51
68891;BME280;55932;48.702;8.884;2022-08-21T17:13:46;95940;;;25.6;51
68891;BME280;55932;48.702;8.884;2022-08-21T17:16:28;95930;;;25.2;51.5
68891;BME280;55932;48.702;8.884;2022-08-21T17:18:58;95940;;;25;51.5
68891;BME280;55932;48.702;8.884;2022-08-21T17:21:33;95940;;;24.8;52
68891;BME280;55932;48.702;8.884;2022-08-21T17:24:00;95940;;;24.6;52
68891;BME280;55932;48.702;8.884;2022-08-21T17:26:40;95940;;;24.5;52
68891;BME280;55932;48.702;8.884;2022-08-21T17:31:20;95940;;;24.1;52.5
68891;BME280;55932;48.702;8.884;2022-08-21T17:33:51;95940;;;23.9;52.5
68891;BME280;55932;48.702;8.884;2022-08-21T17:36:21;95950;;;23.7;52.5
68891;BME280;55932;48.702;8.884;2022-08-21T17:46:11;95950;;;23.3;53
68891;BME280;55932;48.702;8.884;2022-08-21T17:48:41;95950;;;23.2;53
68891;BME280;55932;48.702;8.884;2022-08-21T17:51:11;95950;;;23.1;53
68891;BME280;55932;48.702;8.884;2022-08-21T17:53:42;95960;;;23;53
68891;BME280;55932;48.702;8.884;2022-08-21T17:58:54;95960;;;23;53
68891;BME280;55932;48.702;8.884;2022-08-21T18:01:24;95960;;;23;53
68891;BME280;55932;48.702;8.884;2022-08-21T18:03:54;95960;;;22.9;53
68891;BME280;55932;48.702;8.884;2022-08-21T18:11:14;95960;;;22.5;53
68891;BME280;55932;48.702;8.884;2022-08-21T18:13:45;95960;;;22.3;53
68891;BME280;55932;48.702;8.884;2022-08-21T18:16:15;95950;;;22.2;53.5
68891;BME280;55932;48.702;8.884;2022-08-21T18:18:45;95960;;;22;53.5
68891;BME280;55932;48.702;8.884;2022-08-21T18:21:16;95960;;;21.7;53.5
68891;BME280;55932;48.702;8.884;2022-08-21T18:23:46;95960;;;21.6;54
68891;BME280;55932;48.702;8.884;2022-08-21T18:34:18;95970;;;21.3;53.5
68891;BME280;55932;48.702;8.884;2022-08-21T18:36:41;95970;;;21.2;54
68891;BME280;55932;48.702;8.884;2022-08-21T18:39:12;95980;;;21.1;54
68891;BME280;55932;48.702;8.884;2022-08-21T18:44:17;95980;;;20.7;54
68891;BME280;55932;48.702;8.884;2022-08-21T18:49:02;95980;;;20.5;54.5
68891;BME280;55932;48.702;8.884;2022-08-21T18:51:34;95990;;;20.3;54.5
68891;BME280;55932;48.702;8.884;2022-08-21T18:54:02;95990;;;20.2;54.5
68891;BME280;55932;48.702;8.884;2022-08-21T18:59:03;96000;;;20;54.5
68891;BME280;55932;48.702;8.884;2022-08-21T19:06:45;96000;;;19.8;54.5
68891;BME280;55932;48.702;8.884;2022-08-21T19:09:25;96000;;;19.8;54.5
68891;BME280;55932;48.702;8.884;2022-08-21T19:11:57;96010;;;19.7;54.5
68891;BME280;55932;48.702;8.884;2022-08-21T19:14:06;96010;;;19.6;54.5
68891;BME280;55932;48.702;8.884;2022-08-21T19:16:36;96010;;;19.5;54.5
68891;BME280;55932;48.702;8.884;2022-08-21T19:19:05;96010;;;19.4;54.5
68891;BME280;55932;48.702;8.884;2022-08-21T19:21:25;96010;;;19.2;54.5
68891;BME280;55932;48.702;8.884;2022-08-21T19:28:58;96010;;;18.9;55
68891;BME280;55932;48.702;8.884;2022-08-21T19:31:28;96010;;;18.8;55
68891;BME280;55932;48.702;8.884;2022-08-21T19:34:02;96010;;;18.7;55
68891;BME280;55932;48.702;8.884;2022-08-21T19:44:13;96020;;;18.1;55.5
68891;BME280;55932;48.702;8.884;2022-08-21T19:46:42;96030;;;18.1;55.5
68891;BME280;55932;48.702;8.884;2022-08-21T19:49:12;96030;;;18;55.5
68891;BME280;55932;48.702;8.884;2022-08-21T19:51:42;96030;;;17.9;55.5
68891;BME280;55932;48.702;8.884;2022-08-21T20:04:01;96030;;;17.3;56
68891;BME280;55932;48.702;8.884;2022-08-21T20:06:32;96030;;;17.2;56
68891;BME280;55932;48.702;8.884;2022-08-21T20:09:03;96030;;;17.1;56
68891;BME280;55932;48.702;8.884;2022-08-21T20:11:38;96030;;;17.1;56
68891;BME280;55932;48.702;8.884;2022-08-21T20:14:03;96030;;;17;56
68891;BME280;55932;48.702;8.884;2022-08-21T20:19:05;96030;;;16.8;56
68891;BME280;55932;48.702;8.884;2022-08-21T20:21:35;96030;;;16.7;56
68891;BME280;55932;48.702;8.884;2022-08-21T20:26:47;96030;;;16.7;56
68891;BME280;55932;48.702;8.884;2022-08-21T20:31:48;96030;;;16.7;55.5
68891;BME280;55932;48.702;8.884;2022-08-21T20:34:17;96030;;;16.7;55.5
68891;BME280;55932;48.702;8.884;2022-08-21T20:36:47;96030;;;16.8;55
68891;BME280;55932;48.702;8.884;2022-08-21T20:39:07;96020;;;16.9;55